This is the latest recevied weather packets stored in our database for station/object KC5DP. If no packets are shown the sender has not sent any weather packets the latest 10 day(s).
| Time | Temp. | Humidity | Pressure | Rain* | Wind** | Luminosity | Snow |
|---|---|---|---|---|---|---|---|
| 1777906174 | 22.22° C | 60% | 1017.3 hPa | 0 mm | - | 498 W/m² | - |
| 1777905871 | 22.22° C | 61% | 1017.5 hPa | 0 mm | - | 483 W/m² | - |
| 1777905568 | 22.22° C | 59% | 1017.3 hPa | 0 mm | - | 468 W/m² | - |
| 1777905265 | 22.22° C | 64% | 1017.4 hPa | 0 mm | - | 452 W/m² | - |
| 1777904962 | 22.22° C | 66% | 1017.2 hPa | 0 mm | - | 438 W/m² | - |
| 1777904659 | 21.67° C | 66% | 1017.4 hPa | 0 mm | - | 423 W/m² | - |
| 1777904356 | 21.11° C | 66% | 1017.3 hPa | 0 mm | - | 406 W/m² | - |
| 1777904053 | 21.11° C | 67% | 1017.3 hPa | 0 mm | - | 392 W/m² | - |
| 1777903750 | 21.11° C | 67% | 1017.4 hPa | 0 mm | - | 376 W/m² | - |
| 1777903446 | 20.56° C | 66% | 1017.2 hPa | 0 mm | - | 359 W/m² | - |
| 1777903142 | 20.56° C | 67% | 1017.5 hPa | 0 mm | - | 343 W/m² | - |
| 1777902839 | 20° C | 70% | 1017.2 hPa | 0 mm | - | 327 W/m² | - |
| 1777902536 | 20.56° C | 70% | 1017.4 hPa | 0 mm | - | 321 W/m² | - |
| 1777902233 | 20.56° C | 69% | 1017.3 hPa | 0 mm | - | 334 W/m² | - |
| 1777901931 | 20° C | 73% | 1017.4 hPa | 0 mm | - | 314 W/m² | - |
| 1777901629 | 19.44° C | 73% | 1017.4 hPa | 0 mm | - | 280 W/m² | - |
| 1777901326 | 18.33° C | 77% | 1017.2 hPa | 0 mm | - | 260 W/m² | - |
| 1777901023 | 18.89° C | 75% | 1017.4 hPa | 0 mm | - | 238 W/m² | - |
| 1777900721 | 18.33° C | 76% | 1017.4 hPa | 0 mm | - | 214 W/m² | - |
| 1777900417 | 18.89° C | 76% | 1017.4 hPa | 0 mm | - | 179 W/m² | - |
| 1777900114 | 17.78° C | 80% | 1017.4 hPa | 0 mm | - | 147 W/m² | - |
| 1777899811 | 15.56° C | 88% | 1017.5 hPa | 0 mm | - | 121 W/m² | - |
| 1777899508 | 15° C | 96% | 1017.5 hPa | 0 mm | - | 101 W/m² | - |
| 1777899206 | 15.56° C | 98% | 1017.4 hPa | 0 mm | - | 84 W/m² | - |
| 1777898903 | 14.44° C | 98% | 1017.4 hPa | 0 mm | - | 73 W/m² | - |
* Rain latest hour (hover to see other rain measurements)
** Current wind speed in m/s (hover to see current wind gust speed)